Kinmount, Canada
Current Conditions -  °F | °C
As of 11:00 PM on Tuesday 25 Nov 2014 (Local Time) from CYQA Reporting Station
Overcast Overcast  
Wind Chill: 23°   Ceiling: 3800
Heat Index: 30°   Visibility: 9mi
Dew Point: 21°   Wind: 8mph
Humidity: 69%   Direction: 290°WNW
Pressure: 30.11"   Gusts: NA
Location:  44.78°N, 78.65°W
Report Text: CYQA 260400Z AUTO 29007KT 9SM OVC038 M01/M06 A3011 RMK PRESRR SLP208
Loading
Personal Weather Stations






























Interactive Weather Map New forecast layout! Learn more

10-Day Weather Forecast

Advertisements
Track Severe Weather on mobile